Terminal Aerodrome Forecast
Issued by NWS

Home | Current Version | Previous Version | Text Only | Print | Product List | Glossary On
Versions: 1 2 3 4 5 6 7 8 9 10 11 12 13 14
000
FTUS44 KOUN 261122
TAFWWR
TAF
KWWR 261122Z 2612/2712 13009KT 3SM BR BKN006
      TEMPO 2612/2614 1/4SM FG OVC002
     FM261500 16018G25KT P6SM BKN250
     FM262100 20015G23KT P6SM SCT150 SCT250
     FM270100 35016G25KT P6SM SCT250
     FM270600 35014G20KT P6SM BKN015=

USA.gov is the U.S. government's official web portal to all federal, state and local government web resources and services.